Time;durP1;ratioP1;P1;durP2;ratioP2;P2;SDS_P1;SDS_P2;PMS_P1;PMS_P2;Temp;Humidity;BMP_temperature;BMP_pressure;BME280_temperature;BME280_humidity;BME280_pressure;Samples;Min_cycle;Max_cycle;Signal;HPM_P1;HPM_P2
2022/11/03 00:00:09;;;;;;;12.37;4.00;;;;;;;;;;5029559;28;20183;-79
2022/11/03 00:02:38;;;;;;;11.90;4.20;;;;;;;;;;5034657;28;20715;-79
2022/11/03 00:06:03;;;;;;;7.77;4.10;;;;;;;;;;5042862;28;20198;-78
2022/11/03 00:07:50;;;;;;;9.40;4.50;;;;;;;;;;5029569;28;20422;-79
2022/11/03 00:10:16;;;;;;;10.47;3.90;;;;;;;;;;5034844;28;20174;-79
2022/11/03 00:12:43;;;;;;;11.83;4.60;;;;;;;;;;5028790;28;20818;-79
2022/11/03 00:15:09;;;;;;;11.33;4.70;;;;;;;;;;5026217;28;20693;-79
2022/11/03 00:17:35;;;;;;;10.47;3.93;;;;;;;;;;5037683;28;20190;-79
2022/11/03 00:20:01;;;;;;;7.90;4.00;;;;;;;;;;5015503;28;20197;-79
2022/11/03 00:22:28;;;;;;;8.60;4.10;;;;;;;;;;5026752;28;20264;-79
2022/11/03 00:24:54;;;;;;;6.57;3.83;;;;;;;;;;5029538;28;20198;-78
2022/11/03 00:27:20;;;;;;;8.40;4.27;;;;;;;;;;5030821;28;20195;-78
2022/11/03 00:29:47;;;;;;;9.53;4.23;;;;;;;;;;5035995;28;20182;-79
2022/11/03 00:32:13;;;;;;;8.83;4.63;;;;;;;;;;5004744;28;20178;-79
2022/11/03 00:34:39;;;;;;;9.77;5.10;;;;;;;;;;5028300;28;20297;-79
2022/11/03 00:37:05;;;;;;;10.80;5.63;;;;;;;;;;5030658;28;20186;-79
2022/11/03 00:39:31;;;;;;;11.10;5.47;;;;;;;;;;5026413;28;20599;-79
2022/11/03 00:41:57;;;;;;;11.47;5.77;;;;;;;;;;5017685;28;20266;-79
2022/11/03 00:44:24;;;;;;;8.80;5.43;;;;;;;;;;5028161;28;20221;-79
2022/11/03 00:46:50;;;;;;;11.97;5.70;;;;;;;;;;5012168;28;20205;-79
2022/11/03 00:49:16;;;;;;;9.97;5.10;;;;;;;;;;5043324;28;20194;-79
2022/11/03 00:51:42;;;;;;;8.37;5.13;;;;;;;;;;5039768;28;20174;-79
2022/11/03 00:54:08;;;;;;;11.17;5.03;;;;;;;;;;5036002;28;20574;-79
2022/11/03 00:56:38;;;;;;;9.40;5.03;;;;;;;;;;5029559;28;20236;-79
2022/11/03 00:59:05;;;;;;;11.10;5.60;;;;;;;;;;5026500;28;20190;-79
2022/11/03 01:01:35;;;;;;;8.30;4.70;;;;;;;;;;5027290;28;20182;-79
2022/11/03 01:06:52;;;;;;;9.17;4.50;;;;;;;;;;5013001;28;20183;-79
2022/11/03 01:09:28;;;;;;;10.93;4.07;;;;;;;;;;5041322;28;20186;-79
2022/11/03 01:11:54;;;;;;;6.90;4.10;;;;;;;;;;5043156;28;20592;-79
2022/11/03 01:14:20;;;;;;;8.73;4.40;;;;;;;;;;5026861;28;20702;-79
2022/11/03 01:16:47;;;;;;;6.90;3.73;;;;;;;;;;5036386;28;20182;-78
2022/11/03 01:19:13;;;;;;;10.07;4.50;;;;;;;;;;5040212;28;20189;-78
2022/11/03 01:21:39;;;;;;;10.73;4.10;;;;;;;;;;5026747;28;20186;-79
2022/11/03 01:24:05;;;;;;;7.83;4.23;;;;;;;;;;5033659;28;20272;-79
2022/11/03 01:26:31;;;;;;;9.03;4.60;;;;;;;;;;5055679;28;20466;-79
2022/11/03 01:28:59;;;;;;;9.40;4.60;;;;;;;;;;5034322;28;20262;-79
2022/11/03 01:31:26;;;;;;;8.97;4.50;;;;;;;;;;5013325;28;20178;-78
2022/11/03 01:33:52;;;;;;;9.70;4.30;;;;;;;;;;5011502;28;20301;-79
2022/11/03 01:36:19;;;;;;;10.07;4.37;;;;;;;;;;5036050;28;20228;-79
2022/11/03 01:38:45;;;;;;;7.53;4.03;;;;;;;;;;5028502;28;20237;-79
2022/11/03 01:41:17;;;;;;;9.27;4.33;;;;;;;;;;5018485;28;20709;-79
2022/11/03 01:43:43;;;;;;;11.37;4.73;;;;;;;;;;5022693;28;20213;-79
2022/11/03 01:46:17;;;;;;;8.87;4.97;;;;;;;;;;5025761;28;20200;-79
2022/11/03 01:48:49;;;;;;;9.47;4.03;;;;;;;;;;5038643;28;20204;-79
2022/11/03 01:51:17;;;;;;;5.47;3.70;;;;;;;;;;5034454;28;20187;-79
2022/11/03 01:53:45;;;;;;;9.10;4.43;;;;;;;;;;5010059;28;20586;-79
2022/11/03 01:56:13;;;;;;;8.27;4.50;;;;;;;;;;5027551;28;20209;-79
2022/11/03 01:58:41;;;;;;;8.53;4.87;;;;;;;;;;5037796;28;20734;-79
2022/11/03 02:01:07;;;;;;;10.43;4.53;;;;;;;;;;5035338;28;20165;-79
2022/11/03 02:03:37;;;;;;;11.53;4.43;;;;;;;;;;5036029;28;20744;-79
2022/11/03 02:06:04;;;;;;;11.27;4.50;;;;;;;;;;5027709;28;20186;-79
2022/11/03 02:08:35;;;;;;;9.20;3.97;;;;;;;;;;5046008;28;20170;-79
2022/11/03 02:12:05;;;;;;;8.63;4.43;;;;;;;;;;5036243;28;20225;-79
2022/11/03 02:13:50;;;;;;;12.13;4.60;;;;;;;;;;5024309;28;20206;-79
2022/11/03 02:16:17;;;;;;;8.50;4.67;;;;;;;;;;5034464;28;20228;-79
2022/11/03 02:18:44;;;;;;;6.37;4.20;;;;;;;;;;5035835;28;20221;-79
2022/11/03 02:21:27;;;;;;;9.17;4.30;;;;;;;;;;5030215;28;20171;-79
2022/11/03 02:23:59;;;;;;;8.37;4.10;;;;;;;;;;5032743;28;20263;-79
2022/11/03 02:26:25;;;;;;;6.83;3.83;;;;;;;;;;5029787;28;20174;-79
2022/11/03 02:28:51;;;;;;;8.57;4.20;;;;;;;;;;5031425;28;20183;-79
2022/11/03 02:31:35;;;;;;;10.13;4.30;;;;;;;;;;5039631;28;20213;-79
2022/11/03 02:34:06;;;;;;;8.80;3.83;;;;;;;;;;5049364;28;20263;-79
2022/11/03 02:36:45;;;;;;;6.90;3.80;;;;;;;;;;5041238;28;20716;-79
2022/11/03 02:39:15;;;;;;;9.07;4.20;;;;;;;;;;5035116;28;20193;-79
2022/11/03 02:41:41;;;;;;;6.77;3.50;;;;;;;;;;5047506;28;20181;-79
2022/11/03 02:44:11;;;;;;;7.33;3.50;;;;;;;;;;5011795;28;20218;-79
2022/11/03 02:46:38;;;;;;;6.27;3.40;;;;;;;;;;5030951;28;20277;-78
2022/11/03 02:49:04;;;;;;;7.17;3.77;;;;;;;;;;5030812;28;20187;-79
2022/11/03 02:51:30;;;;;;;6.93;3.77;;;;;;;;;;5029920;28;20179;-79
2022/11/03 02:54:17;;;;;;;8.53;3.67;;;;;;;;;;5028656;28;20210;-79
2022/11/03 02:56:48;;;;;;;7.03;3.90;;;;;;;;;;5034615;28;20673;-79
2022/11/03 02:59:17;;;;;;;6.10;3.60;;;;;;;;;;5038741;28;20182;-79
2022/11/03 03:01:47;;;;;;;7.47;3.77;;;;;;;;;;5032491;28;20189;-79
2022/11/03 03:04:24;;;;;;;10.83;4.27;;;;;;;;;;5029433;28;20225;-79
2022/11/03 03:06:54;;;;;;;6.73;3.80;;;;;;;;;;5028035;28;20763;-79
2022/11/03 03:09:22;;;;;;;8.90;4.07;;;;;;;;;;5009939;28;20189;-79
2022/11/03 03:11:50;;;;;;;8.43;3.93;;;;;;;;;;5010633;28;20202;-79
2022/11/03 03:14:18;;;;;;;6.53;3.30;;;;;;;;;;5042952;28;20206;-79
2022/11/03 03:16:56;;;;;;;8.80;3.83;;;;;;;;;;5029777;28;20186;-79
2022/11/03 03:19:40;;;;;;;6.60;3.53;;;;;;;;;;5039468;28;20257;-79
2022/11/03 03:22:13;;;;;;;8.37;3.73;;;;;;;;;;5031380;28;20187;-79
2022/11/03 03:24:45;;;;;;;10.10;4.07;;;;;;;;;;5008914;28;20352;-79
2022/11/03 03:27:14;;;;;;;8.90;3.90;;;;;;;;;;5012265;28;20178;-79
2022/11/03 03:29:43;;;;;;;7.60;3.47;;;;;;;;;;5034110;28;20588;-79
2022/11/03 03:32:10;;;;;;;7.33;3.20;;;;;;;;;;5031713;28;20167;-78
2022/11/03 03:34:39;;;;;;;6.20;3.70;;;;;;;;;;5035781;28;20857;-79
2022/11/03 03:37:06;;;;;;;7.67;3.67;;;;;;;;;;5034130;28;20204;-79
2022/11/03 03:39:34;;;;;;;7.63;3.40;;;;;;;;;;5026622;28;20183;-79
2022/11/03 03:42:01;;;;;;;9.43;3.47;;;;;;;;;;5009651;28;20190;-79
2022/11/03 03:44:27;;;;;;;5.40;3.33;;;;;;;;;;5021217;28;20215;-79
2022/11/03 03:46:59;;;;;;;10.40;3.83;;;;;;;;;;5033573;28;20175;-79
2022/11/03 03:49:26;;;;;;;8.33;4.10;;;;;;;;;;5029636;28;20622;-79
2022/11/03 03:51:52;;;;;;;8.33;3.80;;;;;;;;;;5044565;28;20214;-79
2022/11/03 03:54:18;;;;;;;7.97;3.80;;;;;;;;;;5014233;28;20257;-79
2022/11/03 03:56:44;;;;;;;7.23;3.80;;;;;;;;;;5029322;28;20677;-79
2022/11/03 03:59:10;;;;;;;7.50;3.70;;;;;;;;;;5029929;28;20182;-79
2022/11/03 04:01:36;;;;;;;6.17;3.43;;;;;;;;;;5008626;28;20218;-79
2022/11/03 04:04:03;;;;;;;7.60;3.90;;;;;;;;;;5006557;28;20213;-79
2022/11/03 04:06:29;;;;;;;7.50;3.60;;;;;;;;;;5021603;28;20675;-79
2022/11/03 04:08:55;;;;;;;6.47;3.50;;;;;;;;;;5036916;28;20270;-79
2022/11/03 04:22:21;;;;;;;9.43;3.43;;;;;;;;;;5030498;28;20185;-79
2022/11/03 04:24:48;;;;;;;8.50;3.70;;;;;;;;;;5029338;28;20285;-79
2022/11/03 04:27:23;;;;;;;7.03;3.30;;;;;;;;;;5031995;28;20193;-79
2022/11/03 04:29:50;;;;;;;6.33;3.47;;;;;;;;;;5035647;28;20185;-78
2022/11/03 04:32:17;;;;;;;7.53;3.60;;;;;;;;;;5033234;28;20252;-79
2022/11/03 04:34:46;;;;;;;8.57;3.63;;;;;;;;;;5033107;28;20210;-79
2022/11/03 04:37:13;;;;;;;8.80;5.00;;;;;;;;;;5027162;28;20826;-79
2022/11/03 04:39:39;;;;;;;7.80;4.83;;;;;;;;;;5037942;28;20642;-79
2022/11/03 04:42:14;;;;;;;6.33;4.40;;;;;;;;;;5030646;28;20202;-79
2022/11/03 04:44:40;;;;;;;8.50;3.93;;;;;;;;;;5027169;28;20731;-79
2022/11/03 04:47:10;;;;;;;5.77;3.60;;;;;;;;;;5025707;28;20319;-79
2022/11/03 04:49:37;;;;;;;8.83;3.90;;;;;;;;;;5037663;28;20214;-78
2022/11/03 04:52:03;;;;;;;7.13;4.07;;;;;;;;;;5036091;28;20173;-79
2022/11/03 04:54:29;;;;;;;6.83;3.70;;;;;;;;;;5038366;28;20202;-79
2022/11/03 04:56:55;;;;;;;6.33;3.63;;;;;;;;;;5047765;28;20189;-79
2022/11/03 04:59:21;;;;;;;7.10;3.70;;;;;;;;;;5044466;28;20218;-79
2022/11/03 05:01:48;;;;;;;5.90;3.50;;;;;;;;;;5029029;28;20238;-79
2022/11/03 05:04:16;;;;;;;9.40;3.97;;;;;;;;;;5027649;28;20237;-79
2022/11/03 05:06:47;;;;;;;5.40;3.63;;;;;;;;;;5032187;28;20216;-79
2022/11/03 05:09:20;;;;;;;8.93;4.20;;;;;;;;;;5031915;28;20421;-79
2022/11/03 05:11:46;;;;;;;8.80;4.00;;;;;;;;;;5009910;28;20597;-79
2022/11/03 05:14:18;;;;;;;10.23;4.40;;;;;;;;;;5033568;28;20210;-79
2022/11/03 05:16:44;;;;;;;8.23;4.10;;;;;;;;;;5029068;28;20340;-79
2022/11/03 05:19:21;;;;;;;10.70;4.10;;;;;;;;;;5029429;28;20205;-79
2022/11/03 05:21:49;;;;;;;8.77;4.40;;;;;;;;;;5032484;28;20175;-79
2022/11/03 05:24:15;;;;;;;9.40;3.70;;;;;;;;;;5033301;28;20760;-79
2022/11/03 05:26:41;;;;;;;8.10;4.20;;;;;;;;;;5030520;28;20235;-79
2022/11/03 05:29:15;;;;;;;7.57;3.90;;;;;;;;;;5030840;28;20183;-79
2022/11/03 05:31:42;;;;;;;8.03;3.63;;;;;;;;;;5038457;28;20182;-79
2022/11/03 05:34:27;;;;;;;7.13;3.50;;;;;;;;;;5046612;28;20653;-79
2022/11/03 05:36:53;;;;;;;7.57;3.17;;;;;;;;;;5035496;28;20613;-79
2022/11/03 05:39:46;;;;;;;7.77;3.67;;;;;;;;;;5034974;28;20193;-79
2022/11/03 05:42:20;;;;;;;7.33;3.70;;;;;;;;;;5030828;28;20297;-79
2022/11/03 05:44:46;;;;;;;8.23;3.93;;;;;;;;;;5031583;28;20218;-79
2022/11/03 05:47:18;;;;;;;9.18;4.60;;;;;;;;;;5031978;28;20425;-79
2022/11/03 05:49:44;;;;;;;8.02;4.25;;;;;;;;;;5040513;28;21165;-79
2022/11/03 05:52:19;;;;;;;6.40;3.83;;;;;;;;;;5030504;28;20197;-79
2022/11/03 05:54:45;;;;;;;8.80;4.00;;;;;;;;;;5030045;28;20276;-79
2022/11/03 05:57:13;;;;;;;5.63;4.03;;;;;;;;;;5029393;28;20186;-79
2022/11/03 05:59:40;;;;;;;6.80;3.90;;;;;;;;;;5036683;28;20178;-79
2022/11/03 06:02:11;;;;;;;9.17;4.83;;;;;;;;;;5029267;28;20681;-79
2022/11/03 06:04:39;;;;;;;10.00;5.30;;;;;;;;;;5032465;28;20886;-79
2022/11/03 06:07:09;;;;;;;11.47;6.53;;;;;;;;;;5028432;28;20175;-80
2022/11/03 06:09:35;;;;;;;9.83;5.27;;;;;;;;;;5030445;28;20206;-80
2022/11/03 06:12:05;;;;;;;10.43;5.87;;;;;;;;;;5025998;28;20241;-79
2022/11/03 06:14:31;;;;;;;12.97;6.93;;;;;;;;;;5034216;28;20202;-80
2022/11/03 06:17:00;;;;;;;13.30;5.90;;;;;;;;;;5031081;28;20212;-79
2022/11/03 06:19:30;;;;;;;12.53;6.80;;;;;;;;;;5025483;28;20272;-80
2022/11/03 06:21:58;;;;;;;16.83;7.97;;;;;;;;;;5026873;28;20191;-79
2022/11/03 06:24:26;;;;;;;16.67;9.43;;;;;;;;;;5029843;28;20226;-79
2022/11/03 06:26:52;;;;;;;16.20;8.37;;;;;;;;;;5033247;28;20179;-79
2022/11/03 06:29:19;;;;;;;17.30;8.90;;;;;;;;;;5032178;28;20191;-79
2022/11/03 06:31:48;;;;;;;14.83;7.90;;;;;;;;;;5049915;28;20215;-79
2022/11/03 06:34:41;;;;;;;13.77;7.23;;;;;;;;;;5028044;28;20730;-79
2022/11/03 06:37:24;;;;;;;13.43;7.33;;;;;;;;;;5005399;28;20521;-79
2022/11/03 06:39:51;;;;;;;11.87;6.20;;;;;;;;;;5027596;28;20192;-84
2022/11/03 06:42:19;;;;;;;10.77;5.30;;;;;;;;;;5025637;28;20183;-79
2022/11/03 06:44:47;;;;;;;11.43;5.03;;;;;;;;;;5039699;28;20484;-78
2022/11/03 06:47:21;;;;;;;10.03;5.20;;;;;;;;;;5025991;28;20199;-78
2022/11/03 06:49:47;;;;;;;8.80;4.57;;;;;;;;;;5027193;28;20189;-77
2022/11/03 06:52:23;;;;;;;11.17;4.60;;;;;;;;;;5021379;28;20327;-77
2022/11/03 06:54:50;;;;;;;9.57;5.03;;;;;;;;;;5031989;28;20209;-77
2022/11/03 06:57:18;;;;;;;10.20;4.73;;;;;;;;;;5028427;28;20199;-78
2022/11/03 06:59:44;;;;;;;6.67;4.30;;;;;;;;;;5033834;28;20182;-82
2022/11/03 07:02:32;;;;;;;9.53;4.57;;;;;;;;;;5015846;28;20194;-78
2022/11/03 07:04:59;;;;;;;5.33;3.90;;;;;;;;;;5028373;28;20280;-79
2022/11/03 07:07:26;;;;;;;8.20;4.10;;;;;;;;;;5031829;28;20174;-78
2022/11/03 07:09:53;;;;;;;7.47;4.43;;;;;;;;;;5035450;28;20182;-78
2022/11/03 07:12:19;;;;;;;10.97;5.10;;;;;;;;;;5052870;28;20183;-78
2022/11/03 07:14:45;;;;;;;9.53;5.20;;;;;;;;;;5038026;28;20201;-78
2022/11/03 07:17:15;;;;;;;13.40;5.07;;;;;;;;;;5035324;28;20182;-78
2022/11/03 07:19:43;;;;;;;12.87;5.90;;;;;;;;;;5031938;28;20186;-78
2022/11/03 07:22:21;;;;;;;12.60;6.00;;;;;;;;;;5038769;28;20885;-78
2022/11/03 07:24:48;;;;;;;12.63;7.70;;;;;;;;;;5032642;28;20286;-79
2022/11/03 07:27:25;;;;;;;13.60;7.30;;;;;;;;;;5033334;28;20206;-79
2022/11/03 07:30:00;;;;;;;15.90;8.27;;;;;;;;;;5034791;28;20180;-79
2022/11/03 07:32:28;;;;;;;11.17;7.30;;;;;;;;;;5022156;28;21015;-79
2022/11/03 07:35:03;;;;;;;9.10;6.00;;;;;;;;;;5030562;28;20195;-79
2022/11/03 07:37:30;;;;;;;10.87;5.50;;;;;;;;;;5016116;28;20193;-79
2022/11/03 07:39:57;;;;;;;13.90;5.63;;;;;;;;;;5029224;28;20278;-79
2022/11/03 07:42:25;;;;;;;7.43;5.07;;;;;;;;;;5029409;28;20183;-79
2022/11/03 07:44:55;;;;;;;12.37;5.23;;;;;;;;;;5028501;28;20236;-80
2022/11/03 07:47:26;;;;;;;9.43;5.00;;;;;;;;;;5026151;28;20186;-80
2022/11/03 07:49:52;;;;;;;8.40;4.97;;;;;;;;;;5031055;28;20192;-80
2022/11/03 07:52:23;;;;;;;8.17;4.50;;;;;;;;;;5030165;28;20182;-79
2022/11/03 07:54:50;;;;;;;9.03;5.27;;;;;;;;;;5028141;28;20734;-79
2022/11/03 07:57:21;;;;;;;12.13;5.90;;;;;;;;;;5027166;28;20260;-79
2022/11/03 07:59:50;;;;;;;9.97;5.03;;;;;;;;;;5006416;28;20195;-80
2022/11/03 08:02:22;;;;;;;8.30;4.40;;;;;;;;;;5028588;28;20190;-80
2022/11/03 08:04:49;;;;;;;7.70;4.77;;;;;;;;;;5022544;28;20228;-79
2022/11/03 08:07:15;;;;;;;8.53;4.80;;;;;;;;;;5024555;28;20179;-79
2022/11/03 08:09:41;;;;;;;8.27;4.60;;;;;;;;;;5026995;28;20182;-79
2022/11/03 08:12:07;;;;;;;10.63;5.50;;;;;;;;;;5027208;28;20213;-79
2022/11/03 08:14:34;;;;;;;10.13;5.47;;;;;;;;;;5025632;28;20198;-79
2022/11/03 08:17:00;;;;;;;9.50;5.30;;;;;;;;;;5007588;28;20238;-79
2022/11/03 08:19:26;;;;;;;8.67;4.60;;;;;;;;;;5027271;28;20209;-79
2022/11/03 08:21:52;;;;;;;11.23;6.33;;;;;;;;;;5028801;28;20185;-79
2022/11/03 08:24:18;;;;;;;12.60;5.40;;;;;;;;;;5025602;28;20229;-79
2022/11/03 08:26:44;;;;;;;6.33;4.10;;;;;;;;;;5033272;28;20324;-79
2022/11/03 08:29:10;;;;;;;9.27;5.20;;;;;;;;;;5025888;28;20281;-79
2022/11/03 08:31:37;;;;;;;10.07;4.50;;;;;;;;;;5033472;28;20184;-79
2022/11/03 08:34:03;;;;;;;8.53;4.53;;;;;;;;;;5025645;28;20206;-79
2022/11/03 08:36:29;;;;;;;10.00;5.30;;;;;;;;;;5020864;28;20255;-78
2022/11/03 08:38:55;;;;;;;7.63;4.47;;;;;;;;;;5034299;28;20181;-75
2022/11/03 08:41:21;;;;;;;10.10;5.37;;;;;;;;;;5023439;28;20194;-75
2022/11/03 08:43:48;;;;;;;11.40;5.57;;;;;;;;;;5025606;28;20210;-74
2022/11/03 08:46:14;;;;;;;11.60;5.93;;;;;;;;;;5024491;28;20224;-76
2022/11/03 08:48:40;;;;;;;9.93;5.77;;;;;;;;;;5033956;28;20182;-79
2022/11/03 08:51:12;;;;;;;10.47;5.83;;;;;;;;;;5029872;28;20182;-80
2022/11/03 08:53:39;;;;;;;7.77;5.63;;;;;;;;;;5027516;28;20218;-82
2022/11/03 08:56:06;;;;;;;9.90;5.47;;;;;;;;;;5028283;28;20232;-81
2022/11/03 08:58:32;;;;;;;11.03;5.67;;;;;;;;;;5009798;28;20183;-79
2022/11/03 09:00:58;;;;;;;9.17;4.93;;;;;;;;;;5037088;28;20197;-80
2022/11/03 09:03:24;;;;;;;9.33;5.10;;;;;;;;;;5012427;28;20220;-80
2022/11/03 09:05:50;;;;;;;12.10;5.43;;;;;;;;;;5040735;28;20182;-79
2022/11/03 09:08:16;;;;;;;14.70;5.40;;;;;;;;;;5033997;28;20253;-79
2022/11/03 09:10:43;;;;;;;10.80;5.63;;;;;;;;;;5040717;28;20522;-79
2022/11/03 09:13:09;;;;;;;10.90;5.50;;;;;;;;;;5031785;28;20206;-79
2022/11/03 09:15:35;;;;;;;9.23;5.33;;;;;;;;;;5031652;28;20190;-79
2022/11/03 09:18:01;;;;;;;16.07;8.20;;;;;;;;;;5018094;28;20190;-79
2022/11/03 09:20:28;;;;;;;14.77;7.10;;;;;;;;;;5032603;28;20179;-79
2022/11/03 09:22:54;;;;;;;13.93;6.10;;;;;;;;;;5032645;28;20352;-78
2022/11/03 09:25:20;;;;;;;11.30;5.53;;;;;;;;;;5027411;28;20179;-78
2022/11/03 09:27:46;;;;;;;9.60;4.73;;;;;;;;;;5026746;28;20651;-79
2022/11/03 09:30:12;;;;;;;10.87;4.77;;;;;;;;;;5027326;28;21754;-79
2022/11/03 09:32:39;;;;;;;13.87;4.80;;;;;;;;;;5031647;28;20320;-79
2022/11/03 09:35:07;;;;;;;8.30;4.20;;;;;;;;;;5034005;28;20828;-79
2022/11/03 09:37:34;;;;;;;9.30;4.27;;;;;;;;;;5029560;28;20629;-79
2022/11/03 09:40:00;;;;;;;12.90;5.10;;;;;;;;;;5036916;28;20201;-79
2022/11/03 09:42:27;;;;;;;8.80;4.80;;;;;;;;;;5037064;28;20197;-79
2022/11/03 09:44:54;;;;;;;12.20;4.97;;;;;;;;;;5031982;28;20257;-79
2022/11/03 09:47:33;;;;;;;9.73;4.80;;;;;;;;;;5043829;28;20198;-79
2022/11/03 09:50:00;;;;;;;11.73;5.07;;;;;;;;;;5045280;28;20224;-79
2022/11/03 09:52:26;;;;;;;6.87;5.03;;;;;;;;;;5038699;28;20248;-79
2022/11/03 09:54:54;;;;;;;6.80;4.17;;;;;;;;;;5027215;28;20207;-79
2022/11/03 09:57:20;;;;;;;8.73;4.50;;;;;;;;;;5034709;28;20184;-79
2022/11/03 09:59:47;;;;;;;12.80;4.87;;;;;;;;;;5036019;28;20186;-79
2022/11/03 10:02:34;;;;;;;6.80;4.60;;;;;;;;;;5034297;28;20206;-80
2022/11/03 10:05:01;;;;;;;8.63;4.60;;;;;;;;;;5027464;28;20217;-80
2022/11/03 10:07:28;;;;;;;8.90;4.40;;;;;;;;;;5032730;28;20174;-80
2022/11/03 10:09:55;;;;;;;10.57;5.40;;;;;;;;;;5025401;28;20554;-79
2022/11/03 10:12:23;;;;;;;10.10;5.10;;;;;;;;;;5039357;28;20175;-80
2022/11/03 10:14:50;;;;;;;14.17;6.27;;;;;;;;;;5028588;28;20301;-79
2022/11/03 10:17:18;;;;;;;9.00;4.93;;;;;;;;;;5031281;28;20182;-79
2022/11/03 10:19:48;;;;;;;9.80;5.30;;;;;;;;;;5030682;28;20642;-80
2022/11/03 10:22:15;;;;;;;8.73;4.40;;;;;;;;;;5029546;28;20210;-80
2022/11/03 10:24:41;;;;;;;12.50;5.33;;;;;;;;;;5028670;28;20203;-80
2022/11/03 10:27:19;;;;;;;10.30;5.27;;;;;;;;;;5036817;28;20240;-80
2022/11/03 10:29:46;;;;;;;8.63;5.03;;;;;;;;;;5034680;28;20202;-80
2022/11/03 10:32:28;;;;;;;11.07;5.97;;;;;;;;;;5029848;28;20183;-79
2022/11/03 10:34:54;;;;;;;8.10;5.00;;;;;;;;;;5032105;28;20229;-80
2022/11/03 10:37:24;;;;;;;9.03;4.73;;;;;;;;;;5026183;28;20240;-80
2022/11/03 10:39:51;;;;;;;10.63;5.00;;;;;;;;;;5029567;28;20186;-80
2022/11/03 10:42:19;;;;;;;9.27;5.33;;;;;;;;;;5025773;28;20189;-79
2022/11/03 10:44:45;;;;;;;8.60;4.67;;;;;;;;;;5026026;28;20712;-80
2022/11/03 10:47:22;;;;;;;9.50;4.60;;;;;;;;;;5031420;28;20209;-80
2022/11/03 10:49:49;;;;;;;8.53;5.60;;;;;;;;;;5029025;28;20200;-79
2022/11/03 10:52:19;;;;;;;9.93;5.33;;;;;;;;;;5018832;28;20194;-79
2022/11/03 10:54:47;;;;;;;9.37;4.73;;;;;;;;;;5036417;28;20859;-78
2022/11/03 10:57:13;;;;;;;11.23;5.13;;;;;;;;;;5005036;28;20199;-78
2022/11/03 10:59:41;;;;;;;7.97;4.97;;;;;;;;;;5026741;28;20262;-76
2022/11/03 11:02:16;;;;;;;9.67;5.90;;;;;;;;;;5037107;28;20200;-79
2022/11/03 11:04:42;;;;;;;9.47;5.33;;;;;;;;;;5024229;28;20301;-74
2022/11/03 11:07:17;;;;;;;9.17;6.03;;;;;;;;;;5023724;28;20178;-76
2022/11/03 11:09:43;;;;;;;8.60;5.93;;;;;;;;;;5035405;28;20174;-76
2022/11/03 11:12:17;;;;;;;12.43;5.97;;;;;;;;;;5023722;28;20186;-75
2022/11/03 11:14:55;;;;;;;13.30;6.33;;;;;;;;;;5021582;28;20210;-78
2022/11/03 11:17:37;;;;;;;12.90;6.50;;;;;;;;;;5024063;28;20198;-77
2022/11/03 11:20:20;;;;;;;9.27;5.37;;;;;;;;;;5025331;28;20612;-78
2022/11/03 11:22:46;;;;;;;9.83;5.03;;;;;;;;;;5024433;28;20181;-77
2022/11/03 11:25:12;;;;;;;12.20;5.43;;;;;;;;;;5019910;28;20240;-76
2022/11/03 11:27:39;;;;;;;10.37;5.47;;;;;;;;;;4991649;28;20696;-79
2022/11/03 11:30:06;;;;;;;8.17;4.00;;;;;;;;;;5027298;28;20296;-78
2022/11/03 11:32:41;;;;;;;8.93;3.80;;;;;;;;;;5025267;28;20768;-78
2022/11/03 11:35:09;;;;;;;7.43;3.23;;;;;;;;;;5023526;28;20941;-79
2022/11/03 11:37:36;;;;;;;10.37;3.50;;;;;;;;;;5028680;28;20217;-79
2022/11/03 11:40:03;;;;;;;5.50;3.03;;;;;;;;;;5032382;28;20189;-79
2022/11/03 11:42:30;;;;;;;5.37;2.93;;;;;;;;;;5025825;28;20187;-79
2022/11/03 11:44:57;;;;;;;8.03;3.40;;;;;;;;;;5026254;28;20204;-78
2022/11/03 11:47:23;;;;;;;5.63;3.17;;;;;;;;;;5017988;28;20190;-79
2022/11/03 11:50:00;;;;;;;5.57;3.00;;;;;;;;;;5023827;28;22160;-79
2022/11/03 11:52:26;;;;;;;5.07;3.40;;;;;;;;;;5023892;28;20261;-79
2022/11/03 11:54:53;;;;;;;6.87;3.07;;;;;;;;;;5030032;28;20206;-79
2022/11/03 11:57:20;;;;;;;7.93;3.10;;;;;;;;;;5025470;28;20182;-79
2022/11/03 11:59:47;;;;;;;4.97;3.30;;;;;;;;;;5027365;28;20590;-79
2022/11/03 12:02:18;;;;;;;6.00;3.13;;;;;;;;;;5020780;28;20256;-79
2022/11/03 12:04:48;;;;;;;9.23;4.60;;;;;;;;;;5023451;28;20235;-79
2022/11/03 12:07:15;;;;;;;8.93;4.37;;;;;;;;;;5026562;28;20232;-78
2022/11/03 12:09:42;;;;;;;9.47;5.27;;;;;;;;;;5035795;28;20186;-78
2022/11/03 12:12:08;;;;;;;8.50;4.73;;;;;;;;;;5033176;28;21086;-75
2022/11/03 12:14:35;;;;;;;9.23;4.50;;;;;;;;;;5021780;28;20221;-78
2022/11/03 12:17:13;;;;;;;8.67;4.43;;;;;;;;;;5033981;28;22020;-78
2022/11/03 12:19:44;;;;;;;7.40;4.03;;;;;;;;;;5026347;28;20241;-77
2022/11/03 12:22:11;;;;;;;7.70;4.30;;;;;;;;;;5023927;28;20214;-82
2022/11/03 12:24:39;;;;;;;8.10;3.90;;;;;;;;;;5023783;28;20238;-80
2022/11/03 12:27:28;;;;;;;6.60;3.70;;;;;;;;;;5025137;28;20178;-80
2022/11/03 12:29:54;;;;;;;7.23;3.37;;;;;;;;;;5020365;28;20278;-82
2022/11/03 12:32:26;;;;;;;8.57;3.53;;;;;;;;;;4994899;28;20191;-81
2022/11/03 12:34:55;;;;;;;9.57;4.20;;;;;;;;;;5025049;28;20202;-81
2022/11/03 12:37:22;;;;;;;7.93;4.73;;;;;;;;;;5026774;28;20213;-83
2022/11/03 12:39:48;;;;;;;10.10;5.83;;;;;;;;;;5026982;28;20197;-83
2022/11/03 12:42:14;;;;;;;9.53;4.87;;;;;;;;;;5036366;28;20645;-83
2022/11/03 12:44:40;;;;;;;10.27;4.53;;;;;;;;;;5002036;28;20209;-78
2022/11/03 12:47:06;;;;;;;10.47;5.13;;;;;;;;;;5031812;28;20185;-82
2022/11/03 12:49:33;;;;;;;9.57;5.10;;;;;;;;;;5035742;28;20189;-80
2022/11/03 12:52:05;;;;;;;9.70;4.77;;;;;;;;;;5008762;28;20188;-79
2022/11/03 12:54:32;;;;;;;9.07;4.97;;;;;;;;;;5045073;28;20202;-81
2022/11/03 12:56:58;;;;;;;9.63;4.87;;;;;;;;;;5020834;28;20179;-81
2022/11/03 12:59:24;;;;;;;8.47;5.40;;;;;;;;;;5012563;28;20194;-82
2022/11/03 13:01:51;;;;;;;12.80;6.47;;;;;;;;;;5002755;28;20850;-82
2022/11/03 13:04:17;;;;;;;12.60;7.47;;;;;;;;;;4995431;28;20206;-82
2022/11/03 13:06:43;;;;;;;15.00;8.63;;;;;;;;;;5032605;28;20209;-82
2022/11/03 13:09:11;;;;;;;13.60;8.13;;;;;;;;;;5012187;28;20190;-82
2022/11/03 13:14:25;;;;;;;15.20;6.20;;;;;;;;;;5026351;28;20206;-82
2022/11/03 13:16:51;;;;;;;10.13;6.30;;;;;;;;;;5013318;28;20213;-81
2022/11/03 13:19:17;;;;;;;10.93;5.70;;;;;;;;;;5028295;28;20609;-82
2022/11/03 13:21:43;;;;;;;10.40;6.10;;;;;;;;;;5026010;28;20191;-82
2022/11/03 13:24:09;;;;;;;13.17;7.10;;;;;;;;;;5023881;28;20237;-82
2022/11/03 13:26:35;;;;;;;11.70;6.40;;;;;;;;;;5024428;28;20726;-82
2022/11/03 13:29:02;;;;;;;10.57;6.23;;;;;;;;;;5008980;28;20214;-82
2022/11/03 13:31:28;;;;;;;10.53;6.10;;;;;;;;;;5028343;28;20273;-82
2022/11/03 13:33:54;;;;;;;8.00;5.00;;;;;;;;;;5028702;28;20206;-81
2022/11/03 13:36:20;;;;;;;6.60;5.03;;;;;;;;;;5027174;28;20252;-79
2022/11/03 13:38:46;;;;;;;10.27;5.80;;;;;;;;;;5023834;28;20193;-79
2022/11/03 13:41:12;;;;;;;11.30;5.47;;;;;;;;;;5034412;28;20194;-79
2022/11/03 13:43:38;;;;;;;11.93;6.63;;;;;;;;;;5023496;28;20706;-79
2022/11/03 13:46:05;;;;;;;11.33;6.03;;;;;;;;;;5030657;28;20188;-79
2022/11/03 13:48:31;;;;;;;10.37;5.67;;;;;;;;;;5032669;28;20175;-79
2022/11/03 13:50:58;;;;;;;9.40;6.20;;;;;;;;;;5029712;28;20187;-79
2022/11/03 13:53:25;;;;;;;9.50;5.13;;;;;;;;;;5033096;28;20289;-78
2022/11/03 13:55:51;;;;;;;11.27;6.17;;;;;;;;;;5038010;28;20180;-79
2022/11/03 13:58:17;;;;;;;10.83;5.53;;;;;;;;;;5026871;28;20182;-81
2022/11/03 14:00:43;;;;;;;8.17;5.37;;;;;;;;;;5028333;28;20190;-78
2022/11/03 14:03:10;;;;;;;7.57;4.80;;;;;;;;;;5031554;28;20198;-79
2022/11/03 14:05:36;;;;;;;10.70;5.90;;;;;;;;;;5030442;28;20193;-79
2022/11/03 14:08:03;;;;;;;11.83;6.13;;;;;;;;;;5035982;28;20268;-78
2022/11/03 14:10:29;;;;;;;11.17;5.83;;;;;;;;;;5028007;28;20201;-78
2022/11/03 14:12:56;;;;;;;13.30;6.10;;;;;;;;;;5028478;28;20198;-79
2022/11/03 14:15:27;;;;;;;10.70;6.20;;;;;;;;;;5045771;28;20878;-78
2022/11/03 14:17:53;;;;;;;10.53;6.30;;;;;;;;;;5036005;28;20725;-79
2022/11/03 14:20:19;;;;;;;9.90;7.07;;;;;;;;;;5034685;28;20844;-79
2022/11/03 14:22:46;;;;;;;10.03;6.20;;;;;;;;;;5040910;28;20585;-79
2022/11/03 14:25:12;;;;;;;10.93;6.70;;;;;;;;;;5034021;28;20688;-78
2022/11/03 14:27:38;;;;;;;11.73;7.47;;;;;;;;;;5032537;28;20198;-78
2022/11/03 14:30:05;;;;;;;11.03;6.83;;;;;;;;;;5045899;28;20190;-79
2022/11/03 14:32:31;;;;;;;9.63;6.30;;;;;;;;;;5035552;28;20244;-78
2022/11/03 14:34:57;;;;;;;12.80;7.47;;;;;;;;;;5044331;28;20236;-78
2022/11/03 14:37:24;;;;;;;18.00;8.20;;;;;;;;;;5030998;28;20662;-79
2022/11/03 14:39:50;;;;;;;15.57;7.67;;;;;;;;;;5034899;28;20232;-79
2022/11/03 14:42:16;;;;;;;12.53;6.97;;;;;;;;;;5041111;28;20213;-79
2022/11/03 14:44:44;;;;;;;12.17;6.67;;;;;;;;;;5037367;28;20222;-79
2022/11/03 14:47:11;;;;;;;12.40;6.00;;;;;;;;;;5038718;28;20179;-79
2022/11/03 14:49:37;;;;;;;11.63;5.70;;;;;;;;;;5033316;28;20174;-79
2022/11/03 14:52:05;;;;;;;11.57;5.80;;;;;;;;;;5025760;28;20312;-78
2022/11/03 14:54:32;;;;;;;10.00;5.13;;;;;;;;;;5035097;28;20210;-78
2022/11/03 14:56:58;;;;;;;9.23;5.23;;;;;;;;;;5034079;28;20190;-78
2022/11/03 14:59:24;;;;;;;8.17;4.80;;;;;;;;;;5035267;28;20187;-77
2022/11/03 15:01:54;;;;;;;10.17;4.57;;;;;;;;;;5028835;28;20190;-79